Time;durP1;ratioP1;P1;durP2;ratioP2;P2;SDS_P1;SDS_P2;PMS_P1;PMS_P2;Temp;Humidity;BMP_temperature;BMP_pressure;BME280_temperature;BME280_humidity;BME280_pressure;Samples;Min_cycle;Max_cycle;Signal;HPM_P1;HPM_P2
2023/09/29 00:02:07;;;;;;;;;;;15.40;99.90;;;;;;4932583;29;19934;-85
2023/09/29 00:04:33;;;;;;;;;;;15.40;99.90;;;;;;4931774;29;20402;-84
2023/09/29 00:06:59;;;;;;;;;;;15.40;99.90;;;;;;4932952;28;19977;-85
2023/09/29 00:09:25;;;;;;;;;;;15.40;99.90;;;;;;4933270;29;19927;-85
2023/09/29 00:11:51;;;;;;;;;;;15.40;99.90;;;;;;4932880;29;19927;-86
2023/09/29 00:14:17;;;;;;;;;;;15.40;99.90;;;;;;4932259;29;20424;-85
2023/09/29 00:16:42;;;;;;;;;;;15.40;99.90;;;;;;4940862;28;20001;-85
2023/09/29 00:19:08;;;;;;;;;;;15.40;99.90;;;;;;4933433;28;19933;-85
2023/09/29 00:21:33;;;;;;;;;;;15.40;99.90;;;;;;4932044;29;20263;-84
2023/09/29 00:23:59;;;;;;;;;;;15.40;99.90;;;;;;4931567;28;19982;-85
2023/09/29 00:26:24;;;;;;;;;;;15.40;99.90;;;;;;4932397;29;20384;-85
2023/09/29 00:28:50;;;;;;;;;;;15.40;99.90;;;;;;4932285;28;20336;-84
2023/09/29 00:31:15;;;;;;;;;;;15.40;99.90;;;;;;4933178;28;19942;-85
2023/09/29 00:33:42;;;;;;;;;;;15.40;99.90;;;;;;4931241;29;19927;-86
2023/09/29 00:36:09;;;;;;;;;;;15.50;99.90;;;;;;4927807;29;19969;-85
2023/09/29 00:38:35;;;;;;;;;;;15.50;99.90;;;;;;4931499;29;20404;-84
2023/09/29 00:41:00;;;;;;;;;;;15.50;99.90;;;;;;4932492;29;19962;-85
2023/09/29 00:43:27;;;;;;;;;;;15.50;99.90;;;;;;4932067;29;20025;-85
2023/09/29 00:45:53;;;;;;;;;;;15.50;99.90;;;;;;4930701;29;19980;-84
2023/09/29 00:48:19;;;;;;;;;;;15.50;99.90;;;;;;4932641;28;19927;-85
2023/09/29 00:50:45;;;;;;;;;;;15.50;99.90;;;;;;4931853;29;19927;-84
2023/09/29 00:53:13;;;;;;;;;;;15.50;99.90;;;;;;4930353;29;19931;-84
2023/09/29 00:55:41;;;;;;;;;;;15.40;99.90;;;;;;4932618;29;19933;-84
2023/09/29 00:58:08;;;;;;;;;;;15.40;99.90;;;;;;4930433;29;19935;-85
2023/09/29 01:00:36;;;;;;;;;;;15.50;99.90;;;;;;4931221;29;19926;-84
2023/09/29 01:03:06;;;;;;;;;;;15.50;99.90;;;;;;4930104;29;19938;-85
2023/09/29 01:05:41;;;;;;;;;;;15.50;99.90;;;;;;4932703;29;19927;-85
2023/09/29 01:08:12;;;;;;;;;;;15.50;99.90;;;;;;4931784;29;19934;-84
2023/09/29 01:10:38;;;;;;;;;;;15.40;99.90;;;;;;4932493;28;19973;-84
2023/09/29 01:13:04;;;;;;;;;;;15.40;99.90;;;;;;4930605;29;19931;-84
2023/09/29 01:15:31;;;;;;;;;;;15.40;99.90;;;;;;4935247;29;19934;-85
2023/09/29 01:17:57;;;;;;;;;;;15.40;99.90;;;;;;4940448;28;19985;-85
2023/09/29 01:20:30;;;;;;;;;;;15.40;99.90;;;;;;4931135;29;19927;-85
2023/09/29 01:23:08;;;;;;;;;;;15.40;99.90;;;;;;4930995;29;19931;-84
2023/09/29 01:25:34;;;;;;;;;;;15.40;99.90;;;;;;4931735;29;19938;-85
2023/09/29 01:28:01;;;;;;;;;;;15.40;99.90;;;;;;4930928;29;19927;-85
2023/09/29 01:30:27;;;;;;;;;;;15.40;99.90;;;;;;4931958;29;19980;-85
2023/09/29 01:32:54;;;;;;;;;;;15.40;99.90;;;;;;4931801;29;19978;-85
2023/09/29 01:35:27;;;;;;;;;;;15.40;99.90;;;;;;4930944;29;19934;-84
2023/09/29 01:37:54;;;;;;;;;;;15.40;99.90;;;;;;4911764;29;19927;-85
2023/09/29 01:40:23;;;;;;;;;;;15.40;99.90;;;;;;4926148;29;20014;-85
2023/09/29 01:42:49;;;;;;;;;;;15.40;99.90;;;;;;4931939;28;19927;-85
2023/09/29 01:45:15;;;;;;;;;;;15.40;99.90;;;;;;4931318;29;20289;-85
2023/09/29 01:47:45;;;;;;;;;;;15.50;99.90;;;;;;4931708;29;19927;-83
2023/09/29 01:50:12;;;;;;;;;;;15.40;99.90;;;;;;4931145;29;20344;-84
2023/09/29 01:52:38;;;;;;;;;;;15.50;99.90;;;;;;4931999;29;20289;-84
2023/09/29 01:55:08;;;;;;;;;;;15.50;99.90;;;;;;4930908;29;19931;-84
2023/09/29 01:57:34;;;;;;;;;;;15.50;99.90;;;;;;4929757;28;20386;-84
2023/09/29 02:00:00;;;;;;;;;;;15.50;99.90;;;;;;4913738;29;19937;-84
2023/09/29 02:02:25;;;;;;;;;;;15.50;99.90;;;;;;4930687;28;20382;-85
2023/09/29 02:04:52;;;;;;;;;;;15.50;99.90;;;;;;4930780;29;19927;-85
2023/09/29 02:07:18;;;;;;;;;;;15.50;99.90;;;;;;4925858;29;19935;-85
2023/09/29 02:09:44;;;;;;;;;;;15.60;99.90;;;;;;4914993;29;19927;-87
2023/09/29 02:12:10;;;;;;;;;;;15.50;99.90;;;;;;4931161;28;19933;-85
2023/09/29 02:14:35;;;;;;;;;;;15.60;99.90;;;;;;4946481;28;19927;-85
2023/09/29 02:17:01;;;;;;;;;;;15.60;99.90;;;;;;4943325;28;19933;-85
2023/09/29 02:19:27;;;;;;;;;;;15.70;99.90;;;;;;4930405;29;19935;-84
2023/09/29 02:21:53;;;;;;;;;;;15.70;99.90;;;;;;4931732;29;19934;-85
2023/09/29 02:24:18;;;;;;;;;;;15.70;99.90;;;;;;4931627;29;19973;-83
2023/09/29 02:26:44;;;;;;;;;;;15.70;99.90;;;;;;4928643;29;20344;-85
2023/09/29 02:29:10;;;;;;;;;;;15.70;99.90;;;;;;4931469;29;19973;-85
2023/09/29 02:31:36;;;;;;;;;;;15.70;99.90;;;;;;4934095;29;19927;-84
2023/09/29 02:34:02;;;;;;;;;;;15.80;99.90;;;;;;4933549;29;19966;-84
2023/09/29 02:36:28;;;;;;;;;;;15.70;99.90;;;;;;4933943;29;19934;-84
2023/09/29 02:38:54;;;;;;;;;;;15.80;99.90;;;;;;4933197;29;19927;-84
2023/09/29 02:41:20;;;;;;;;;;;15.80;99.90;;;;;;4933746;29;19927;-85
2023/09/29 02:43:45;;;;;;;;;;;15.80;99.90;;;;;;4934660;29;19938;-85
2023/09/29 02:46:14;;;;;;;;;;;15.70;99.90;;;;;;4934154;29;19930;-85
2023/09/29 02:48:40;;;;;;;;;;;15.70;99.90;;;;;;4932219;29;19927;-85
2023/09/29 02:51:12;;;;;;;;;;;15.70;99.90;;;;;;4933633;29;19978;-85
2023/09/29 02:53:39;;;;;;;;;;;15.70;99.90;;;;;;4934630;29;19930;-85
2023/09/29 02:56:05;;;;;;;;;;;15.70;99.90;;;;;;4933508;29;19934;-84
2023/09/29 02:58:34;;;;;;;;;;;15.70;99.90;;;;;;4932475;29;19977;-85
2023/09/29 03:00:59;;;;;;;;;;;15.70;99.90;;;;;;4932882;29;20013;-85
2023/09/29 03:03:27;;;;;;;;;;;15.80;99.90;;;;;;4933455;29;20022;-85
2023/09/29 03:05:53;;;;;;;;;;;15.70;99.90;;;;;;4932836;29;20049;-84
2023/09/29 03:08:18;;;;;;;;;;;15.70;99.90;;;;;;4930595;29;20046;-85
2023/09/29 03:10:44;;;;;;;;;;;15.80;99.90;;;;;;4934625;29;19927;-85
2023/09/29 03:13:11;;;;;;;;;;;15.80;99.90;;;;;;4933412;29;19934;-85
2023/09/29 03:15:36;;;;;;;;;;;15.80;99.90;;;;;;4936759;29;19936;-85
2023/09/29 03:18:02;;;;;;;;;;;15.80;99.90;;;;;;4940163;28;20378;-85
2023/09/29 03:20:28;;;;;;;;;;;15.80;99.90;;;;;;4931564;29;20047;-84
2023/09/29 03:22:56;;;;;;;;;;;15.80;99.90;;;;;;4934287;29;19927;-86
2023/09/29 03:25:22;;;;;;;;;;;15.80;99.90;;;;;;4934284;29;19981;-85
2023/09/29 03:27:48;;;;;;;;;;;15.80;99.90;;;;;;4933543;29;19937;-84
2023/09/29 03:30:15;;;;;;;;;;;15.90;99.90;;;;;;4932283;29;19927;-85
2023/09/29 03:32:41;;;;;;;;;;;15.80;99.90;;;;;;4934277;29;19938;-84
2023/09/29 03:35:08;;;;;;;;;;;15.90;99.90;;;;;;4932880;29;20374;-85
2023/09/29 03:37:39;;;;;;;;;;;15.80;99.90;;;;;;4933406;29;20387;-85
2023/09/29 03:40:11;;;;;;;;;;;15.90;99.90;;;;;;4932575;29;19930;-84
2023/09/29 03:42:37;;;;;;;;;;;15.90;99.90;;;;;;4932789;29;19980;-85
2023/09/29 03:45:05;;;;;;;;;;;15.90;99.90;;;;;;4933086;29;20065;-86
2023/09/29 03:47:34;;;;;;;;;;;15.90;99.90;;;;;;4932708;29;19933;-83
2023/09/29 03:50:01;;;;;;;;;;;15.90;99.90;;;;;;4932278;29;19934;-84
2023/09/29 03:52:27;;;;;;;;;;;15.90;99.90;;;;;;4933121;29;20065;-84
2023/09/29 03:54:53;;;;;;;;;;;15.90;99.90;;;;;;4933471;28;20021;-82
2023/09/29 03:57:18;;;;;;;;;;;15.90;99.90;;;;;;4933171;29;19927;-87
2023/09/29 03:59:44;;;;;;;;;;;15.90;99.90;;;;;;4929891;28;20290;-85
2023/09/29 04:02:09;;;;;;;;;;;16.00;99.90;;;;;;4930683;28;19943;-84
2023/09/29 04:04:35;;;;;;;;;;;16.00;99.90;;;;;;4933194;29;19931;-85
2023/09/29 04:07:01;;;;;;;;;;;16.00;99.90;;;;;;4932620;29;19927;-85
2023/09/29 04:09:27;;;;;;;;;;;16.00;99.90;;;;;;4933510;29;19938;-84
2023/09/29 04:11:52;;;;;;;;;;;16.00;99.90;;;;;;4929616;29;19926;-86
2023/09/29 04:14:18;;;;;;;;;;;16.10;99.90;;;;;;4928232;28;19974;-84
2023/09/29 04:16:43;;;;;;;;;;;16.10;99.90;;;;;;4940642;29;19949;-85
2023/09/29 04:19:11;;;;;;;;;;;16.10;99.90;;;;;;4933355;29;19927;-84
2023/09/29 04:21:37;;;;;;;;;;;16.10;99.90;;;;;;4931383;29;20341;-85
2023/09/29 04:24:03;;;;;;;;;;;16.10;99.90;;;;;;4933660;29;19986;-85
2023/09/29 04:26:28;;;;;;;;;;;16.10;99.90;;;;;;4933298;29;20301;-85
2023/09/29 04:28:54;;;;;;;;;;;16.10;99.90;;;;;;4932512;28;19977;-85
2023/09/29 04:31:20;;;;;;;;;;;16.20;99.90;;;;;;4932233;29;19931;-85
2023/09/29 04:33:45;;;;;;;;;;;16.20;99.90;;;;;;4931712;29;19927;-86
2023/09/29 04:36:11;;;;;;;;;;;16.20;99.90;;;;;;4932314;29;19937;-84
2023/09/29 04:38:37;;;;;;;;;;;16.20;99.90;;;;;;4931666;28;19935;-85
2023/09/29 04:41:04;;;;;;;;;;;16.20;99.90;;;;;;4933060;29;19927;-85
2023/09/29 04:43:30;;;;;;;;;;;16.20;99.90;;;;;;4931220;29;20389;-84
2023/09/29 04:45:56;;;;;;;;;;;16.30;99.90;;;;;;4931683;29;19935;-85
2023/09/29 04:48:22;;;;;;;;;;;16.30;99.90;;;;;;4932379;29;19927;-84
2023/09/29 04:50:47;;;;;;;;;;;16.30;99.90;;;;;;4932709;28;20053;-85
2023/09/29 04:53:13;;;;;;;;;;;16.30;99.90;;;;;;4930457;29;20389;-84
2023/09/29 04:55:38;;;;;;;;;;;16.30;99.90;;;;;;4932847;29;20069;-84
2023/09/29 04:58:04;;;;;;;;;;;16.30;99.90;;;;;;4931767;29;20397;-85
2023/09/29 05:00:30;;;;;;;;;;;16.30;99.90;;;;;;4932253;28;19942;-84
2023/09/29 05:02:55;;;;;;;;;;;16.40;99.90;;;;;;4930550;28;19934;-84
2023/09/29 05:05:21;;;;;;;;;;;16.40;99.90;;;;;;4931806;29;19933;-83
2023/09/29 05:07:46;;;;;;;;;;;16.40;99.90;;;;;;4932598;29;19974;-85
2023/09/29 05:10:15;;;;;;;;;;;16.40;99.90;;;;;;4932698;29;20412;-85
2023/09/29 05:12:43;;;;;;;;;;;16.40;99.90;;;;;;4932679;29;19933;-84
2023/09/29 05:15:09;;;;;;;;;;;16.40;99.90;;;;;;4930765;29;19927;-85
2023/09/29 05:17:35;;;;;;;;;;;16.40;99.90;;;;;;4941293;28;19931;-85
2023/09/29 05:20:00;;;;;;;;;;;16.50;99.90;;;;;;4927652;29;20021;-85
2023/09/29 05:22:26;;;;;;;;;;;16.50;99.90;;;;;;4932398;29;19981;-85
2023/09/29 05:24:53;;;;;;;;;;;16.50;99.90;;;;;;4931429;29;19927;-85
2023/09/29 05:27:19;;;;;;;;;;;16.50;99.90;;;;;;4930729;29;19934;-84
2023/09/29 05:29:45;;;;;;;;;;;16.50;99.90;;;;;;4931516;29;19930;-85
2023/09/29 05:32:11;;;;;;;;;;;16.50;99.90;;;;;;4931402;29;20396;-82
2023/09/29 05:34:36;;;;;;;;;;;16.50;99.90;;;;;;4930873;29;19939;-85
2023/09/29 05:37:02;;;;;;;;;;;16.50;99.90;;;;;;4932223;28;19931;-84
2023/09/29 05:39:27;;;;;;;;;;;16.50;99.90;;;;;;4910979;29;19927;-85
2023/09/29 05:41:53;;;;;;;;;;;16.50;99.90;;;;;;4925929;28;19927;-85
2023/09/29 05:44:19;;;;;;;;;;;16.50;99.90;;;;;;4931084;29;20010;-84
2023/09/29 05:46:44;;;;;;;;;;;16.50;99.90;;;;;;4926740;29;19930;-84
2023/09/29 05:49:10;;;;;;;;;;;16.50;99.90;;;;;;4929829;28;20026;-85
2023/09/29 05:51:36;;;;;;;;;;;16.50;99.90;;;;;;4931169;29;20293;-84
2023/09/29 05:54:03;;;;;;;;;;;16.50;99.90;;;;;;4931917;28;19927;-84
2023/09/29 05:56:32;;;;;;;;;;;16.40;99.90;;;;;;4931159;29;19927;-85
2023/09/29 05:58:58;;;;;;;;;;;16.50;99.90;;;;;;4929566;29;19980;-84
2023/09/29 06:01:25;;;;;;;;;;;16.50;99.90;;;;;;4931192;29;19935;-85
2023/09/29 06:03:54;;;;;;;;;;;16.40;99.90;;;;;;4932116;29;20014;-85
2023/09/29 06:06:19;;;;;;;;;;;16.50;99.90;;;;;;4933952;29;19926;-85
2023/09/29 06:08:45;;;;;;;;;;;16.50;99.90;;;;;;4935163;29;19934;-87
2023/09/29 06:11:11;;;;;;;;;;;16.60;99.90;;;;;;4934153;29;19938;-84
2023/09/29 06:13:42;;;;;;;;;;;16.60;99.90;;;;;;4934617;29;19935;-84
2023/09/29 06:16:08;;;;;;;;;;;16.60;99.90;;;;;;4938744;29;20056;-84
2023/09/29 06:18:34;;;;;;;;;;;16.70;99.90;;;;;;4935047;28;20281;-83
2023/09/29 06:21:00;;;;;;;;;;;16.70;99.90;;;;;;4932629;29;19927;-83
2023/09/29 06:23:26;;;;;;;;;;;16.70;99.90;;;;;;4934110;29;19934;-87
2023/09/29 06:25:58;;;;;;;;;;;16.80;99.90;;;;;;4932971;28;20215;-84
2023/09/29 06:28:24;;;;;;;;;;;16.80;99.90;;;;;;4929228;29;19930;-86
2023/09/29 06:30:50;;;;;;;;;;;16.80;99.90;;;;;;4933981;28;19927;-83
2023/09/29 06:33:16;;;;;;;;;;;16.80;99.90;;;;;;4934834;28;19926;-85
2023/09/29 06:35:42;;;;;;;;;;;16.80;99.90;;;;;;4934803;29;20000;-85
2023/09/29 06:38:07;;;;;;;;;;;16.80;99.90;;;;;;4933540;29;19935;-85
2023/09/29 06:40:33;;;;;;;;;;;16.80;99.90;;;;;;4933159;28;20018;-86
2023/09/29 06:42:58;;;;;;;;;;;16.80;99.90;;;;;;4935321;28;20412;-85
2023/09/29 06:45:27;;;;;;;;;;;16.80;99.90;;;;;;4917860;29;19930;-86
2023/09/29 06:47:53;;;;;;;;;;;16.90;99.90;;;;;;4933790;29;20389;-85
2023/09/29 06:50:19;;;;;;;;;;;16.90;99.90;;;;;;4933572;29;20041;-87
2023/09/29 06:52:45;;;;;;;;;;;16.90;99.90;;;;;;4934427;29;20441;-86
2023/09/29 06:55:12;;;;;;;;;;;16.90;99.90;;;;;;4934734;28;19937;-85
2023/09/29 06:57:38;;;;;;;;;;;16.90;99.90;;;;;;4930902;28;20377;-86
2023/09/29 07:00:05;;;;;;;;;;;17.00;99.90;;;;;;4933718;29;19934;-84
2023/09/29 07:02:31;;;;;;;;;;;17.00;99.90;;;;;;4932076;28;20397;-85
2023/09/29 07:04:56;;;;;;;;;;;17.00;99.90;;;;;;4934765;28;19930;-85
2023/09/29 07:07:22;;;;;;;;;;;17.10;99.90;;;;;;4934171;29;20285;-86
2023/09/29 07:09:47;;;;;;;;;;;17.10;99.90;;;;;;4932464;29;19927;-86
2023/09/29 07:12:13;;;;;;;;;;;17.20;99.90;;;;;;4926709;29;19930;-85
2023/09/29 07:14:38;;;;;;;;;;;17.20;99.90;;;;;;4933292;28;19960;-85
2023/09/29 07:17:04;;;;;;;;;;;17.30;99.90;;;;;;4937074;29;20374;-85
2023/09/29 07:19:32;;;;;;;;;;;17.30;99.90;;;;;;4932933;28;20340;-85
2023/09/29 07:21:57;;;;;;;;;;;17.40;99.90;;;;;;4932607;28;20034;-87
2023/09/29 07:24:23;;;;;;;;;;;17.40;99.90;;;;;;4931633;29;20017;-84
2023/09/29 07:26:48;;;;;;;;;;;17.40;99.90;;;;;;4932125;28;19930;-87
2023/09/29 07:29:14;;;;;;;;;;;17.40;99.90;;;;;;4933637;28;19931;-84
2023/09/29 07:31:47;;;;;;;;;;;17.50;99.90;;;;;;4932731;29;19950;-86
2023/09/29 07:34:15;;;;;;;;;;;17.50;99.90;;;;;;4932945;28;19975;-85
2023/09/29 07:36:43;;;;;;;;;;;17.60;99.90;;;;;;4928843;29;19992;-85
2023/09/29 07:39:09;;;;;;;;;;;17.60;99.90;;;;;;4933522;29;19931;-85
2023/09/29 07:41:34;;;;;;;;;;;17.70;99.90;;;;;;4933057;29;19926;-85
2023/09/29 07:44:00;;;;;;;;;;;17.80;99.90;;;;;;4929977;29;19935;-87
2023/09/29 07:46:25;;;;;;;;;;;17.90;99.90;;;;;;4933382;28;19930;-85
2023/09/29 07:48:51;;;;;;;;;;;18.00;99.90;;;;;;4933653;28;19933;-84
2023/09/29 07:51:17;;;;;;;;;;;18.00;99.90;;;;;;4926864;29;19938;-85
2023/09/29 07:53:43;;;;;;;;;;;18.20;99.90;;;;;;4933830;28;19931;-86
2023/09/29 07:56:09;;;;;;;;;;;18.30;99.90;;;;;;4932659;29;19934;-86
2023/09/29 07:58:35;;;;;;;;;;;18.30;99.90;;;;;;4934744;28;20372;-83
2023/09/29 08:01:00;;;;;;;;;;;18.50;99.90;;;;;;4932754;28;20945;-84
2023/09/29 08:03:26;;;;;;;;;;;18.60;99.90;;;;;;4933153;28;19933;-84
2023/09/29 08:05:53;;;;;;;;;;;18.60;99.90;;;;;;4931774;29;20427;-89
2023/09/29 08:08:19;;;;;;;;;;;18.70;99.90;;;;;;4912741;29;20105;-88
2023/09/29 08:10:44;;;;;;;;;;;18.90;99.90;;;;;;4928412;28;20420;-85
2023/09/29 08:13:10;;;;;;;;;;;19.00;99.90;;;;;;4933175;29;19927;-84
2023/09/29 08:15:35;;;;;;;;;;;19.10;99.90;;;;;;4932957;29;19927;-84
2023/09/29 08:18:01;;;;;;;;;;;19.20;99.90;;;;;;4933850;29;19933;-85
2023/09/29 08:20:27;;;;;;;;;;;19.30;99.90;;;;;;4933512;29;19931;-85
2023/09/29 08:22:52;;;;;;;;;;;19.40;99.90;;;;;;4927974;29;19931;-83
2023/09/29 08:25:19;;;;;;;;;;;19.50;99.90;;;;;;4932287;29;19976;-85
2023/09/29 08:27:45;;;;;;;;;;;19.50;99.90;;;;;;4931008;29;19930;-85
2023/09/29 08:30:11;;;;;;;;;;;19.70;99.90;;;;;;4916504;29;19930;-84
2023/09/29 08:32:38;;;;;;;;;;;19.80;99.90;;;;;;4933802;29;20030;-88
2023/09/29 08:35:05;;;;;;;;;;;19.90;99.90;;;;;;4932319;29;20534;-84
2023/09/29 08:37:30;;;;;;;;;;;19.90;99.90;;;;;;4931899;29;20025;-86
2023/09/29 08:39:56;;;;;;;;;;;19.90;99.90;;;;;;4931753;28;19967;-84
2023/09/29 08:42:27;;;;;;;;;;;20.10;99.90;;;;;;4932669;29;19938;-83
2023/09/29 08:44:54;;;;;;;;;;;20.30;99.90;;;;;;4933306;29;19927;-85
2023/09/29 08:47:25;;;;;;;;;;;20.30;99.90;;;;;;4930250;29;19931;-86
2023/09/29 08:49:51;;;;;;;;;;;20.40;99.90;;;;;;4932201;29;19930;-87
2023/09/29 08:52:18;;;;;;;;;;;20.50;99.90;;;;;;4933136;29;20010;-86
2023/09/29 08:54:44;;;;;;;;;;;20.60;99.90;;;;;;4931898;29;20351;-86
2023/09/29 08:57:10;;;;;;;;;;;20.60;99.90;;;;;;4927322;29;19973;-87
2023/09/29 08:59:37;;;;;;;;;;;20.60;99.90;;;;;;4935782;28;20409;-86
2023/09/29 09:02:03;;;;;;;;;;;20.60;99.90;;;;;;4932805;29;19930;-85
2023/09/29 09:04:30;;;;;;;;;;;20.70;99.90;;;;;;4931506;29;19934;-85
2023/09/29 09:06:56;;;;;;;;;;;20.70;99.90;;;;;;4931928;29;19927;-87
2023/09/29 09:09:25;;;;;;;;;;;20.70;99.90;;;;;;4929552;29;19927;-87
2023/09/29 09:11:50;;;;;;;;;;;20.80;99.90;;;;;;4930683;29;19934;-84
2023/09/29 09:14:16;;;;;;;;;;;20.90;99.90;;;;;;4931863;29;19931;-85
2023/09/29 09:16:41;;;;;;;;;;;21.10;99.90;;;;;;4933304;29;19927;-85
2023/09/29 09:19:11;;;;;;;;;;;21.20;99.90;;;;;;4929486;29;20026;-86
2023/09/29 09:21:36;;;;;;;;;;;21.20;99.90;;;;;;4929782;29;19935;-86
2023/09/29 09:24:02;;;;;;;;;;;21.30;99.90;;;;;;4928521;29;19937;-86
2023/09/29 09:26:28;;;;;;;;;;;21.40;99.90;;;;;;4931247;29;19977;-86
2023/09/29 09:28:54;;;;;;;;;;;21.30;99.90;;;;;;4935477;29;19927;-83
2023/09/29 09:31:19;;;;;;;;;;;21.30;99.90;;;;;;4930552;29;19934;-84
2023/09/29 09:33:51;;;;;;;;;;;21.30;99.90;;;;;;4930855;28;20032;-86
2023/09/29 09:36:17;;;;;;;;;;;21.30;99.90;;;;;;4931543;29;20080;-85
2023/09/29 09:38:43;;;;;;;;;;;21.30;99.90;;;;;;4932070;29;20397;-86
2023/09/29 09:41:09;;;;;;;;;;;21.30;99.90;;;;;;4936179;29;19931;-85
2023/09/29 09:43:35;;;;;;;;;;;21.30;99.90;;;;;;4934611;29;19926;-85
2023/09/29 09:46:07;;;;;;;;;;;21.30;99.90;;;;;;4933712;29;19927;-84
2023/09/29 09:48:56;;;;;;;;;;;21.10;99.90;;;;;;4934756;29;20023;-86
2023/09/29 09:51:29;;;;;;;;;;;21.10;99.90;;;;;;4930007;29;20278;-85
2023/09/29 09:54:00;;;;;;;;;;;21.10;99.90;;;;;;4932426;29;19943;-88
2023/09/29 09:56:28;;;;;;;;;;;21.00;99.90;;;;;;4933879;28;20453;-86
2023/09/29 09:58:53;;;;;;;;;;;20.90;99.90;;;;;;4930960;29;19970;-86
2023/09/29 10:01:20;;;;;;;;;;;20.80;99.90;;;;;;4931904;28;19978;-87
2023/09/29 10:03:46;;;;;;;;;;;20.70;99.90;;;;;;4932602;28;19934;-86
2023/09/29 10:06:13;;;;;;;;;;;20.70;99.90;;;;;;4933355;29;19953;-86
2023/09/29 10:08:38;;;;;;;;;;;20.70;99.90;;;;;;4931880;29;20328;-84
2023/09/29 10:11:11;;;;;;;;;;;20.70;99.90;;;;;;4929912;29;19980;-86
2023/09/29 10:13:37;;;;;;;;;;;20.80;99.90;;;;;;4926247;29;19931;-84
2023/09/29 10:16:05;;;;;;;;;;;20.80;99.90;;;;;;4935085;29;19927;-86
2023/09/29 10:18:32;;;;;;;;;;;20.80;99.90;;;;;;4932222;29;19926;-85
2023/09/29 10:21:05;;;;;;;;;;;20.70;99.90;;;;;;4935318;29;19927;-85
2023/09/29 10:23:42;;;;;;;;;;;20.70;99.90;;;;;;4938178;29;20072;-86
2023/09/29 10:26:10;;;;;;;;;;;20.70;99.90;;;;;;4931562;29;19974;-85
2023/09/29 10:28:36;;;;;;;;;;;20.60;99.90;;;;;;4927959;28;19927;-84
2023/09/29 10:31:09;;;;;;;;;;;20.60;99.90;;;;;;4929378;29;19974;-88
2023/09/29 10:33:52;;;;;;;;;;;20.70;99.90;;;;;;4944254;29;19931;-87
2023/09/29 10:36:23;;;;;;;;;;;20.70;99.90;;;;;;4924888;29;19931;-86
2023/09/29 10:38:51;;;;;;;;;;;20.80;99.90;;;;;;4926464;29;20388;-88
2023/09/29 10:41:18;;;;;;;;;;;20.90;99.90;;;;;;4927455;29;20180;-89
2023/09/29 10:43:48;;;;;;;;;;;21.10;99.90;;;;;;4926358;29;19930;-89
2023/09/29 10:46:15;;;;;;;;;;;21.20;99.90;;;;;;4926496;28;20042;-88
2023/09/29 10:48:48;;;;;;;;;;;21.20;99.90;;;;;;4939975;28;19965;-87
2023/09/29 10:51:23;;;;;;;;;;;21.20;99.90;;;;;;4918164;29;19935;-88
2023/09/29 10:53:49;;;;;;;;;;;21.30;99.90;;;;;;4936615;29;19950;-87
2023/09/29 10:56:21;;;;;;;;;;;21.30;99.90;;;;;;4935582;28;20362;-87
2023/09/29 10:58:49;;;;;;;;;;;21.30;99.90;;;;;;4933459;28;19989;-87
2023/09/29 11:01:26;;;;;;;;;;;21.20;99.90;;;;;;4933709;28;19930;-90
2023/09/29 11:03:52;;;;;;;;;;;21.10;99.90;;;;;;4936221;29;19927;-92
2023/09/29 11:06:18;;;;;;;;;;;21.10;99.90;;;;;;4935320;29;19931;-89
2023/09/29 11:08:51;;;;;;;;;;;21.10;99.90;;;;;;4933860;29;19971;-87
2023/09/29 11:11:16;;;;;;;;;;;21.00;99.90;;;;;;4934912;29;19931;-90
2023/09/29 11:13:42;;;;;;;;;;;21.00;99.90;;;;;;4933366;29;20018;-88
2023/09/29 11:16:15;;;;;;;;;;;20.90;99.90;;;;;;4934434;29;19931;-90
2023/09/29 11:18:41;;;;;;;;;;;20.90;99.90;;;;;;4934416;29;19931;-91
2023/09/29 11:21:10;;;;;;;;;;;20.90;99.90;;;;;;4933692;29;19934;-92
2023/09/29 11:23:40;;;;;;;;;;;20.90;99.90;;;;;;4930699;28;19927;-86
2023/09/29 11:26:07;;;;;;;;;;;20.90;99.90;;;;;;4915724;29;19926;-87
2023/09/29 11:28:38;;;;;;;;;;;21.00;99.90;;;;;;4933217;29;20281;-86
2023/09/29 11:31:03;;;;;;;;;;;21.00;99.90;;;;;;4934164;29;20004;-86
2023/09/29 11:33:29;;;;;;;;;;;21.00;99.90;;;;;;4933061;29;19994;-85
2023/09/29 11:35:55;;;;;;;;;;;21.00;99.90;;;;;;4933827;28;19982;-87
2023/09/29 11:38:20;;;;;;;;;;;21.10;99.90;;;;;;4916982;29;19933;-85
2023/09/29 11:40:50;;;;;;;;;;;21.20;99.90;;;;;;4933863;28;19927;-84
2023/09/29 11:43:15;;;;;;;;;;;21.30;99.90;;;;;;4933801;29;19927;-86
2023/09/29 11:45:41;;;;;;;;;;;21.30;99.90;;;;;;4931052;29;19927;-84
2023/09/29 11:48:07;;;;;;;;;;;21.50;99.90;;;;;;4933955;29;20415;-86
2023/09/29 11:50:33;;;;;;;;;;;21.60;99.90;;;;;;4933713;29;20379;-86
2023/09/29 11:53:02;;;;;;;;;;;21.70;99.90;;;;;;4933935;29;19934;-85
2023/09/29 11:55:27;;;;;;;;;;;21.80;99.90;;;;;;4931571;29;19938;-86
2023/09/29 11:57:53;;;;;;;;;;;21.90;99.90;;;;;;4933163;28;19927;-85
2023/09/29 12:00:19;;;;;;;;;;;21.90;99.90;;;;;;4933699;29;19934;-85
2023/09/29 12:02:45;;;;;;;;;;;21.90;99.90;;;;;;4933157;29;19935;-85
2023/09/29 12:05:11;;;;;;;;;;;21.90;99.90;;;;;;4932563;29;19934;-86
2023/09/29 12:07:37;;;;;;;;;;;22.00;99.90;;;;;;4933796;29;20096;-85
2023/09/29 12:10:03;;;;;;;;;;;22.00;99.90;;;;;;4933459;29;19930;-86
2023/09/29 12:12:29;;;;;;;;;;;22.00;99.90;;;;;;4933483;29;19931;-87
2023/09/29 12:14:54;;;;;;;;;;;22.00;99.90;;;;;;4933197;29;20017;-86
2023/09/29 12:17:20;;;;;;;;;;;22.00;99.90;;;;;;4932259;29;20014;-86
2023/09/29 12:19:46;;;;;;;;;;;22.00;99.90;;;;;;4933493;29;19961;-86
2023/09/29 12:22:13;;;;;;;;;;;21.90;99.90;;;;;;4932427;29;19938;-86
2023/09/29 12:24:38;;;;;;;;;;;21.90;99.90;;;;;;4933381;29;19927;-87
2023/09/29 12:27:05;;;;;;;;;;;21.70;99.90;;;;;;4932184;29;19927;-86
2023/09/29 12:29:31;;;;;;;;;;;21.40;99.90;;;;;;4932288;29;19972;-87
2023/09/29 12:31:57;;;;;;;;;;;21.10;99.90;;;;;;4933188;29;19930;-87
2023/09/29 12:34:22;;;;;;;;;;;20.70;99.90;;;;;;4948240;28;19937;-86
2023/09/29 12:36:48;;;;;;;;;;;20.50;99.90;;;;;;4931437;29;19981;-86
2023/09/29 12:39:14;;;;;;;;;;;20.40;99.90;;;;;;4933052;29;19927;-87
2023/09/29 12:41:40;;;;;;;;;;;20.20;99.90;;;;;;4916482;29;19984;-87
2023/09/29 12:44:05;;;;;;;;;;;20.10;99.90;;;;;;4932926;29;19930;-87
2023/09/29 12:46:31;;;;;;;;;;;20.00;99.90;;;;;;4932025;29;20072;-87
2023/09/29 12:48:57;;;;;;;;;;;19.90;99.90;;;;;;4931078;29;19927;-86
2023/09/29 12:51:23;;;;;;;;;;;19.80;99.90;;;;;;4931915;29;19927;-86
2023/09/29 12:53:52;;;;;;;;;;;19.80;99.90;;;;;;4933008;29;19927;-87
2023/09/29 12:56:17;;;;;;;;;;;19.80;99.90;;;;;;4932531;29;19957;-87
2023/09/29 12:58:43;;;;;;;;;;;19.70;99.90;;;;;;4930700;29;19950;-87
2023/09/29 13:01:09;;;;;;;;;;;19.60;99.90;;;;;;4931755;29;19930;-87
2023/09/29 13:03:36;;;;;;;;;;;19.40;99.90;;;;;;4931145;29;19931;-86
2023/09/29 13:06:05;;;;;;;;;;;19.20;99.90;;;;;;4931598;29;19931;-87
2023/09/29 13:08:31;;;;;;;;;;;19.00;99.90;;;;;;4931665;29;20275;-88
2023/09/29 13:10:56;;;;;;;;;;;18.80;99.90;;;;;;4932700;29;19927;-86
2023/09/29 13:13:22;;;;;;;;;;;18.70;99.90;;;;;;4930115;29;19988;-86
2023/09/29 13:15:50;;;;;;;;;;;18.50;99.90;;;;;;4932077;29;20009;-86
2023/09/29 13:18:16;;;;;;;;;;;18.40;99.90;;;;;;4932330;29;20021;-87
2023/09/29 13:20:44;;;;;;;;;;;18.30;99.90;;;;;;4932611;29;19931;-86
2023/09/29 13:23:10;;;;;;;;;;;18.30;99.90;;;;;;4928378;29;20014;-85
2023/09/29 13:25:36;;;;;;;;;;;18.30;99.90;;;;;;4929592;29;20005;-86
2023/09/29 13:28:02;;;;;;;;;;;18.30;99.90;;;;;;4930986;29;20341;-86
2023/09/29 13:30:28;;;;;;;;;;;18.30;99.90;;;;;;4932307;29;19942;-86
2023/09/29 13:32:53;;;;;;;;;;;18.40;99.90;;;;;;4932536;29;19931;-87
2023/09/29 13:35:19;;;;;;;;;;;18.40;99.90;;;;;;4930531;29;19926;-86
2023/09/29 13:37:45;;;;;;;;;;;18.50;99.90;;;;;;4932462;29;19974;-86
2023/09/29 13:40:10;;;;;;;;;;;18.50;99.90;;;;;;4931128;29;20382;-87
2023/09/29 13:42:36;;;;;;;;;;;18.40;99.90;;;;;;4931266;29;19934;-86
2023/09/29 13:45:02;;;;;;;;;;;18.40;99.90;;;;;;4929686;29;20294;-88
2023/09/29 13:47:28;;;;;;;;;;;18.30;99.90;;;;;;4931314;29;19931;-87
2023/09/29 13:49:55;;;;;;;;;;;18.20;99.90;;;;;;4931329;29;20455;-89
2023/09/29 13:52:21;;;;;;;;;;;18.20;99.90;;;;;;4929865;29;19980;-88
2023/09/29 13:54:49;;;;;;;;;;;18.10;99.90;;;;;;4930084;28;19930;-85
2023/09/29 13:57:15;;;;;;;;;;;18.00;99.90;;;;;;4928762;29;20306;-85
2023/09/29 13:59:41;;;;;;;;;;;17.90;99.90;;;;;;4930200;28;19927;-88
2023/09/29 14:02:10;;;;;;;;;;;17.90;99.90;;;;;;4929621;28;19938;-85
2023/09/29 14:04:35;;;;;;;;;;;17.90;99.90;;;;;;4929098;28;19974;-87
2023/09/29 14:07:01;;;;;;;;;;;17.90;99.90;;;;;;4930131;29;19982;-86
2023/09/29 14:09:27;;;;;;;;;;;17.90;99.90;;;;;;4931976;29;19926;-87
2023/09/29 14:11:52;;;;;;;;;;;17.90;99.90;;;;;;4929660;29;20379;-87
2023/09/29 14:14:21;;;;;;;;;;;18.00;99.90;;;;;;4931865;29;19931;-86